sensor_id;sensor_type;location;lat;lon;timestamp;P1;durP1;ratioP1;P2;durP2;ratioP2
12059;SDS011;6091;51.432;6.880;2023-05-31T00:01:20;1.15;;;1.13;;
12059;SDS011;6091;51.432;6.880;2023-05-31T00:03:47;1.40;;;1.30;;
12059;SDS011;6091;51.432;6.880;2023-05-31T00:06:14;0.98;;;0.98;;
12059;SDS011;6091;51.432;6.880;2023-05-31T00:08:41;1.10;;;1.10;;
12059;SDS011;6091;51.432;6.880;2023-05-31T00:11:08;1.30;;;1.20;;
12059;SDS011;6091;51.432;6.880;2023-05-31T00:13:36;1.40;;;1.30;;
12059;SDS011;6091;51.432;6.880;2023-05-31T00:16:05;1.50;;;1.40;;
12059;SDS011;6091;51.432;6.880;2023-05-31T00:18:53;1.50;;;1.40;;
12059;SDS011;6091;51.432;6.880;2023-05-31T00:21:21;1.30;;;1.23;;
12059;SDS011;6091;51.432;6.880;2023-05-31T00:23:48;1.55;;;1.45;;
12059;SDS011;6091;51.432;6.880;2023-05-31T00:26:15;1.40;;;1.30;;
12059;SDS011;6091;51.432;6.880;2023-05-31T00:28:42;1.33;;;1.20;;
12059;SDS011;6091;51.432;6.880;2023-05-31T00:31:09;1.50;;;1.40;;
12059;SDS011;6091;51.432;6.880;2023-05-31T00:33:36;1.10;;;1.00;;
12059;SDS011;6091;51.432;6.880;2023-05-31T00:36:03;1.40;;;1.25;;
12059;SDS011;6091;51.432;6.880;2023-05-31T00:38:30;1.30;;;1.30;;
12059;SDS011;6091;51.432;6.880;2023-05-31T00:40:57;1.65;;;1.52;;
12059;SDS011;6091;51.432;6.880;2023-05-31T00:43:24;1.30;;;1.20;;
12059;SDS011;6091;51.432;6.880;2023-05-31T00:45:52;1.40;;;1.30;;
12059;SDS011;6091;51.432;6.880;2023-05-31T00:48:19;1.50;;;1.40;;
12059;SDS011;6091;51.432;6.880;2023-05-31T00:50:47;1.50;;;1.40;;
12059;SDS011;6091;51.432;6.880;2023-05-31T00:53:15;1.88;;;1.40;;
12059;SDS011;6091;51.432;6.880;2023-05-31T00:55:44;1.60;;;1.50;;
12059;SDS011;6091;51.432;6.880;2023-05-31T00:58:11;1.40;;;1.30;;
12059;SDS011;6091;51.432;6.880;2023-05-31T01:00:39;1.20;;;1.20;;
12059;SDS011;6091;51.432;6.880;2023-05-31T01:03:06;1.45;;;1.35;;
12059;SDS011;6091;51.432;6.880;2023-05-31T01:05:35;1.30;;;1.20;;
12059;SDS011;6091;51.432;6.880;2023-05-31T01:08:02;1.05;;;1.05;;
12059;SDS011;6091;51.432;6.880;2023-05-31T01:10:29;1.38;;;1.27;;
12059;SDS011;6091;51.432;6.880;2023-05-31T01:16:12;1.30;;;1.20;;
12059;SDS011;6091;51.432;6.880;2023-05-31T01:19:05;1.40;;;1.30;;
12059;SDS011;6091;51.432;6.880;2023-05-31T01:21:48;1.50;;;1.40;;
12059;SDS011;6091;51.432;6.880;2023-05-31T01:24:34;1.33;;;1.23;;
12059;SDS011;6091;51.432;6.880;2023-05-31T01:27:24;1.40;;;1.30;;
12059;SDS011;6091;51.432;6.880;2023-05-31T01:29:53;1.40;;;1.30;;
12059;SDS011;6091;51.432;6.880;2023-05-31T01:32:24;1.50;;;1.40;;
12059;SDS011;6091;51.432;6.880;2023-05-31T01:34:53;1.50;;;1.40;;
12059;SDS011;6091;51.432;6.880;2023-05-31T01:37:20;1.15;;;1.13;;
12059;SDS011;6091;51.432;6.880;2023-05-31T01:39:47;1.30;;;1.30;;
12059;SDS011;6091;51.432;6.880;2023-05-31T01:42:15;1.38;;;1.30;;
12059;SDS011;6091;51.432;6.880;2023-05-31T01:44:43;1.38;;;1.27;;
12059;SDS011;6091;51.432;6.880;2023-05-31T01:47:11;1.70;;;1.60;;
12059;SDS011;6091;51.432;6.880;2023-05-31T01:49:38;1.70;;;1.60;;
12059;SDS011;6091;51.432;6.880;2023-05-31T01:52:06;1.50;;;1.40;;
12059;SDS011;6091;51.432;6.880;2023-05-31T01:54:38;1.42;;;1.33;;
12059;SDS011;6091;51.432;6.880;2023-05-31T01:57:05;1.40;;;1.30;;
12059;SDS011;6091;51.432;6.880;2023-05-31T01:59:34;1.60;;;1.50;;
12059;SDS011;6091;51.432;6.880;2023-05-31T02:02:03;1.35;;;1.25;;
12059;SDS011;6091;51.432;6.880;2023-05-31T02:04:31;1.30;;;1.20;;
12059;SDS011;6091;51.432;6.880;2023-05-31T02:06:58;1.50;;;1.40;;
12059;SDS011;6091;51.432;6.880;2023-05-31T02:09:26;1.50;;;1.40;;
12059;SDS011;6091;51.432;6.880;2023-05-31T02:11:53;1.40;;;1.30;;
12059;SDS011;6091;51.432;6.880;2023-05-31T02:14:20;1.60;;;1.50;;
12059;SDS011;6091;51.432;6.880;2023-05-31T02:16:47;1.10;;;1.10;;
12059;SDS011;6091;51.432;6.880;2023-05-31T02:19:14;1.08;;;1.08;;
12059;SDS011;6091;51.432;6.880;2023-05-31T02:21:41;1.50;;;1.40;;
12059;SDS011;6091;51.432;6.880;2023-05-31T02:24:08;1.42;;;1.33;;
12059;SDS011;6091;51.432;6.880;2023-05-31T02:26:35;1.40;;;1.33;;
12059;SDS011;6091;51.432;6.880;2023-05-31T02:29:02;1.40;;;1.30;;
12059;SDS011;6091;51.432;6.880;2023-05-31T02:31:29;1.45;;;1.30;;
12059;SDS011;6091;51.432;6.880;2023-05-31T02:33:56;1.33;;;1.30;;
12059;SDS011;6091;51.432;6.880;2023-05-31T02:36:23;1.50;;;1.40;;
12059;SDS011;6091;51.432;6.880;2023-05-31T02:38:55;1.10;;;1.10;;
12059;SDS011;6091;51.432;6.880;2023-05-31T02:41:22;1.50;;;1.40;;
12059;SDS011;6091;51.432;6.880;2023-05-31T02:43:49;1.65;;;1.55;;
12059;SDS011;6091;51.432;6.880;2023-05-31T02:46:16;1.40;;;1.30;;
12059;SDS011;6091;51.432;6.880;2023-05-31T02:48:43;1.48;;;1.40;;
12059;SDS011;6091;51.432;6.880;2023-05-31T02:51:10;1.42;;;1.30;;
12059;SDS011;6091;51.432;6.880;2023-05-31T02:53:37;1.50;;;1.40;;
12059;SDS011;6091;51.432;6.880;2023-05-31T02:56:04;1.58;;;1.48;;
12059;SDS011;6091;51.432;6.880;2023-05-31T02:58:31;1.50;;;1.40;;
12059;SDS011;6091;51.432;6.880;2023-05-31T03:00:58;1.85;;;1.60;;
12059;SDS011;6091;51.432;6.880;2023-05-31T03:03:26;1.60;;;1.50;;
12059;SDS011;6091;51.432;6.880;2023-05-31T03:05:53;1.60;;;1.50;;
12059;SDS011;6091;51.432;6.880;2023-05-31T03:08:20;1.88;;;1.48;;
12059;SDS011;6091;51.432;6.880;2023-05-31T03:10:47;1.38;;;1.33;;
12059;SDS011;6091;51.432;6.880;2023-05-31T03:13:14;1.80;;;1.70;;
12059;SDS011;6091;51.432;6.880;2023-05-31T03:15:42;1.63;;;1.50;;
12059;SDS011;6091;51.432;6.880;2023-05-31T03:18:09;1.50;;;1.40;;
12059;SDS011;6091;51.432;6.880;2023-05-31T03:20:36;1.63;;;1.52;;
12059;SDS011;6091;51.432;6.880;2023-05-31T03:23:03;1.60;;;1.50;;
12059;SDS011;6091;51.432;6.880;2023-05-31T03:25:30;1.25;;;1.20;;
12059;SDS011;6091;51.432;6.880;2023-05-31T03:27:57;1.50;;;1.40;;
12059;SDS011;6091;51.432;6.880;2023-05-31T03:30:24;1.38;;;1.30;;
12059;SDS011;6091;51.432;6.880;2023-05-31T03:32:51;1.75;;;1.65;;
12059;SDS011;6091;51.432;6.880;2023-05-31T03:35:18;1.40;;;1.30;;
12059;SDS011;6091;51.432;6.880;2023-05-31T03:37:45;1.60;;;1.50;;
12059;SDS011;6091;51.432;6.880;2023-05-31T03:40:12;1.80;;;1.70;;
12059;SDS011;6091;51.432;6.880;2023-05-31T03:42:39;1.17;;;1.17;;
12059;SDS011;6091;51.432;6.880;2023-05-31T03:45:06;1.50;;;1.40;;
12059;SDS011;6091;51.432;6.880;2023-05-31T03:47:34;1.67;;;1.52;;
12059;SDS011;6091;51.432;6.880;2023-05-31T03:50:03;1.60;;;1.50;;
12059;SDS011;6091;51.432;6.880;2023-05-31T03:52:32;2.17;;;1.60;;
12059;SDS011;6091;51.432;6.880;2023-05-31T03:54:59;1.50;;;1.40;;
12059;SDS011;6091;51.432;6.880;2023-05-31T03:57:26;1.30;;;1.20;;
12059;SDS011;6091;51.432;6.880;2023-05-31T03:59:53;1.48;;;1.38;;
12059;SDS011;6091;51.432;6.880;2023-05-31T04:02:20;1.90;;;1.80;;
12059;SDS011;6091;51.432;6.880;2023-05-31T04:04:47;1.55;;;1.40;;
12059;SDS011;6091;51.432;6.880;2023-05-31T04:07:14;1.40;;;1.30;;
12059;SDS011;6091;51.432;6.880;2023-05-31T04:09:41;1.67;;;1.58;;
12059;SDS011;6091;51.432;6.880;2023-05-31T04:12:09;1.63;;;1.52;;
12059;SDS011;6091;51.432;6.880;2023-05-31T04:14:36;1.60;;;1.50;;
12059;SDS011;6091;51.432;6.880;2023-05-31T04:17:03;1.73;;;1.63;;
12059;SDS011;6091;51.432;6.880;2023-05-31T04:19:31;1.38;;;1.27;;
12059;SDS011;6091;51.432;6.880;2023-05-31T04:21:58;1.55;;;1.45;;
12059;SDS011;6091;51.432;6.880;2023-05-31T04:24:25;1.50;;;1.40;;
12059;SDS011;6091;51.432;6.880;2023-05-31T04:26:52;1.60;;;1.50;;
12059;SDS011;6091;51.432;6.880;2023-05-31T04:29:19;1.50;;;1.40;;
12059;SDS011;6091;51.432;6.880;2023-05-31T04:31:47;1.40;;;1.30;;
12059;SDS011;6091;51.432;6.880;2023-05-31T04:34:17;1.60;;;1.50;;
12059;SDS011;6091;51.432;6.880;2023-05-31T04:36:45;1.55;;;1.45;;
12059;SDS011;6091;51.432;6.880;2023-05-31T04:39:16;1.60;;;1.50;;
12059;SDS011;6091;51.432;6.880;2023-05-31T04:41:46;1.65;;;1.55;;
12059;SDS011;6091;51.432;6.880;2023-05-31T04:44:13;1.38;;;1.33;;
12059;SDS011;6091;51.432;6.880;2023-05-31T04:46:40;1.50;;;1.40;;
12059;SDS011;6091;51.432;6.880;2023-05-31T04:49:07;1.65;;;1.55;;
12059;SDS011;6091;51.432;6.880;2023-05-31T04:51:36;1.40;;;1.30;;
12059;SDS011;6091;51.432;6.880;2023-05-31T04:54:03;1.50;;;1.40;;
12059;SDS011;6091;51.432;6.880;2023-05-31T04:56:32;1.90;;;1.80;;
12059;SDS011;6091;51.432;6.880;2023-05-31T04:58:59;2.05;;;1.60;;
12059;SDS011;6091;51.432;6.880;2023-05-31T05:01:26;1.50;;;1.40;;
12059;SDS011;6091;51.432;6.880;2023-05-31T05:03:54;1.20;;;1.20;;
12059;SDS011;6091;51.432;6.880;2023-05-31T05:06:21;1.50;;;1.40;;
12059;SDS011;6091;51.432;6.880;2023-05-31T05:08:48;1.67;;;1.52;;
12059;SDS011;6091;51.432;6.880;2023-05-31T05:11:15;1.60;;;1.50;;
12059;SDS011;6091;51.432;6.880;2023-05-31T05:13:42;1.80;;;1.70;;
12059;SDS011;6091;51.432;6.880;2023-05-31T05:16:09;1.65;;;1.55;;
12059;SDS011;6091;51.432;6.880;2023-05-31T05:18:37;2.05;;;1.52;;
12059;SDS011;6091;51.432;6.880;2023-05-31T05:21:04;1.42;;;1.33;;
12059;SDS011;6091;51.432;6.880;2023-05-31T05:23:31;1.60;;;1.50;;
12059;SDS011;6091;51.432;6.880;2023-05-31T05:25:59;1.58;;;1.48;;
12059;SDS011;6091;51.432;6.880;2023-05-31T05:28:27;1.73;;;1.60;;
12059;SDS011;6091;51.432;6.880;2023-05-31T05:30:54;1.70;;;1.60;;
12059;SDS011;6091;51.432;6.880;2023-05-31T05:33:22;1.70;;;1.50;;
12059;SDS011;6091;51.432;6.880;2023-05-31T05:35:49;1.63;;;1.52;;
12059;SDS011;6091;51.432;6.880;2023-05-31T05:38:16;1.60;;;1.50;;
12059;SDS011;6091;51.432;6.880;2023-05-31T05:40:43;1.52;;;1.42;;
12059;SDS011;6091;51.432;6.880;2023-05-31T05:43:10;1.98;;;1.73;;
12059;SDS011;6091;51.432;6.880;2023-05-31T05:45:37;1.85;;;1.75;;
12059;SDS011;6091;51.432;6.880;2023-05-31T05:48:05;1.40;;;1.30;;
12059;SDS011;6091;51.432;6.880;2023-05-31T05:50:32;1.50;;;1.40;;
12059;SDS011;6091;51.432;6.880;2023-05-31T05:52:59;1.60;;;1.50;;
12059;SDS011;6091;51.432;6.880;2023-05-31T05:55:26;1.40;;;1.30;;
12059;SDS011;6091;51.432;6.880;2023-05-31T05:57:54;1.80;;;1.70;;
12059;SDS011;6091;51.432;6.880;2023-05-31T06:00:21;1.63;;;1.50;;
12059;SDS011;6091;51.432;6.880;2023-05-31T06:02:50;1.67;;;1.58;;
12059;SDS011;6091;51.432;6.880;2023-05-31T06:05:20;1.83;;;1.73;;
12059;SDS011;6091;51.432;6.880;2023-05-31T06:07:53;2.00;;;1.83;;
12059;SDS011;6091;51.432;6.880;2023-05-31T06:10:20;1.70;;;1.60;;
12059;SDS011;6091;51.432;6.880;2023-05-31T06:12:47;2.78;;;1.70;;
12059;SDS011;6091;51.432;6.880;2023-05-31T06:15:14;2.58;;;2.10;;
12059;SDS011;6091;51.432;6.880;2023-05-31T06:17:41;3.22;;;2.22;;
12059;SDS011;6091;51.432;6.880;2023-05-31T06:20:09;2.38;;;2.13;;
12059;SDS011;6091;51.432;6.880;2023-05-31T06:22:37;2.40;;;2.20;;
12059;SDS011;6091;51.432;6.880;2023-05-31T06:25:04;2.63;;;2.20;;
12059;SDS011;6091;51.432;6.880;2023-05-31T06:27:32;2.50;;;2.30;;
12059;SDS011;6091;51.432;6.880;2023-05-31T06:29:59;2.55;;;2.33;;
12059;SDS011;6091;51.432;6.880;2023-05-31T06:32:27;2.88;;;2.25;;
12059;SDS011;6091;51.432;6.880;2023-05-31T06:34:55;2.33;;;2.13;;
12059;SDS011;6091;51.432;6.880;2023-05-31T06:37:22;2.58;;;2.38;;
12059;SDS011;6091;51.432;6.880;2023-05-31T06:39:49;2.45;;;2.00;;
12059;SDS011;6091;51.432;6.880;2023-05-31T06:42:17;2.33;;;2.13;;
12059;SDS011;6091;51.432;6.880;2023-05-31T06:44:45;2.72;;;2.53;;
12059;SDS011;6091;51.432;6.880;2023-05-31T06:47:22;3.17;;;2.30;;
12059;SDS011;6091;51.432;6.880;2023-05-31T06:49:49;4.20;;;2.40;;
12059;SDS011;6091;51.432;6.880;2023-05-31T06:52:16;2.50;;;2.30;;
12059;SDS011;6091;51.432;6.880;2023-05-31T06:54:43;4.13;;;2.42;;
12059;SDS011;6091;51.432;6.880;2023-05-31T06:57:11;3.90;;;2.25;;
12059;SDS011;6091;51.432;6.880;2023-05-31T06:59:38;3.10;;;2.40;;
12059;SDS011;6091;51.432;6.880;2023-05-31T07:02:05;3.63;;;2.45;;
12059;SDS011;6091;51.432;6.880;2023-05-31T07:04:33;3.00;;;2.17;;
12059;SDS011;6091;51.432;6.880;2023-05-31T07:07:01;2.92;;;2.30;;
12059;SDS011;6091;51.432;6.880;2023-05-31T07:09:29;4.03;;;2.33;;
12059;SDS011;6091;51.432;6.880;2023-05-31T07:11:56;2.78;;;2.42;;
12059;SDS011;6091;51.432;6.880;2023-05-31T07:14:23;3.30;;;2.13;;
12059;SDS011;6091;51.432;6.880;2023-05-31T07:16:50;2.80;;;2.28;;
12059;SDS011;6091;51.432;6.880;2023-05-31T07:19:17;2.53;;;2.17;;
12059;SDS011;6091;51.432;6.880;2023-05-31T07:21:44;3.15;;;2.30;;
12059;SDS011;6091;51.432;6.880;2023-05-31T07:24:11;7.32;;;2.47;;
12059;SDS011;6091;51.432;6.880;2023-05-31T07:26:38;5.65;;;2.88;;
12059;SDS011;6091;51.432;6.880;2023-05-31T07:29:06;3.15;;;2.22;;
12059;SDS011;6091;51.432;6.880;2023-05-31T07:31:33;2.83;;;2.45;;
12059;SDS011;6091;51.432;6.880;2023-05-31T07:34:00;3.83;;;2.40;;
12059;SDS011;6091;51.432;6.880;2023-05-31T07:36:27;3.28;;;2.10;;
12059;SDS011;6091;51.432;6.880;2023-05-31T07:38:54;3.33;;;2.55;;
12059;SDS011;6091;51.432;6.880;2023-05-31T07:41:21;4.28;;;2.20;;
12059;SDS011;6091;51.432;6.880;2023-05-31T07:43:48;4.47;;;2.30;;
12059;SDS011;6091;51.432;6.880;2023-05-31T07:46:16;2.92;;;2.33;;
12059;SDS011;6091;51.432;6.880;2023-05-31T07:48:44;3.92;;;2.65;;
12059;SDS011;6091;51.432;6.880;2023-05-31T07:51:11;4.13;;;2.40;;
12059;SDS011;6091;51.432;6.880;2023-05-31T07:53:38;3.25;;;2.60;;
12059;SDS011;6091;51.432;6.880;2023-05-31T07:56:07;3.35;;;2.30;;
12059;SDS011;6091;51.432;6.880;2023-05-31T07:58:34;4.82;;;2.42;;
12059;SDS011;6091;51.432;6.880;2023-05-31T08:01:01;3.30;;;2.40;;
12059;SDS011;6091;51.432;6.880;2023-05-31T08:03:28;4.00;;;2.60;;
12059;SDS011;6091;51.432;6.880;2023-05-31T08:05:57;3.97;;;2.58;;
12059;SDS011;6091;51.432;6.880;2023-05-31T08:08:24;6.15;;;2.50;;
12059;SDS011;6091;51.432;6.880;2023-05-31T08:10:52;3.83;;;2.45;;
12059;SDS011;6091;51.432;6.880;2023-05-31T08:13:19;4.95;;;2.35;;
12059;SDS011;6091;51.432;6.880;2023-05-31T08:15:46;6.60;;;2.72;;
12059;SDS011;6091;51.432;6.880;2023-05-31T08:18:13;5.45;;;2.75;;
12059;SDS011;6091;51.432;6.880;2023-05-31T08:20:40;3.05;;;2.35;;
12059;SDS011;6091;51.432;6.880;2023-05-31T08:23:08;7.80;;;2.55;;
12059;SDS011;6091;51.432;6.880;2023-05-31T08:25:35;5.78;;;2.78;;
12059;SDS011;6091;51.432;6.880;2023-05-31T08:28:07;6.07;;;3.17;;
12059;SDS011;6091;51.432;6.880;2023-05-31T08:30:33;7.10;;;3.45;;
12059;SDS011;6091;51.432;6.880;2023-05-31T08:33:01;9.25;;;3.58;;
12059;SDS011;6091;51.432;6.880;2023-05-31T08:35:28;8.40;;;4.40;;
12059;SDS011;6091;51.432;6.880;2023-05-31T08:37:55;10.50;;;3.30;;
12059;SDS011;6091;51.432;6.880;2023-05-31T08:40:24;4.78;;;3.50;;
12059;SDS011;6091;51.432;6.880;2023-05-31T08:42:54;4.50;;;2.97;;
12059;SDS011;6091;51.432;6.880;2023-05-31T08:45:25;5.28;;;3.45;;
12059;SDS011;6091;51.432;6.880;2023-05-31T08:48:16;3.60;;;2.70;;
12059;SDS011;6091;51.432;6.880;2023-05-31T08:50:59;5.40;;;2.85;;
12059;SDS011;6091;51.432;6.880;2023-05-31T08:53:28;5.35;;;3.15;;
12059;SDS011;6091;51.432;6.880;2023-05-31T08:55:56;5.75;;;3.03;;
12059;SDS011;6091;51.432;6.880;2023-05-31T08:58:28;4.57;;;2.85;;
12059;SDS011;6091;51.432;6.880;2023-05-31T09:00:56;4.13;;;2.55;;
12059;SDS011;6091;51.432;6.880;2023-05-31T09:03:24;3.88;;;2.63;;
12059;SDS011;6091;51.432;6.880;2023-05-31T09:05:53;3.45;;;2.67;;
12059;SDS011;6091;51.432;6.880;2023-05-31T09:08:22;2.90;;;2.45;;
12059;SDS011;6091;51.432;6.880;2023-05-31T09:10:50;3.28;;;2.80;;
12059;SDS011;6091;51.432;6.880;2023-05-31T09:13:17;3.97;;;2.80;;
12059;SDS011;6091;51.432;6.880;2023-05-31T09:15:45;4.30;;;2.55;;
12059;SDS011;6091;51.432;6.880;2023-05-31T09:18:16;3.22;;;2.50;;
12059;SDS011;6091;51.432;6.880;2023-05-31T09:20:48;3.80;;;2.58;;
12059;SDS011;6091;51.432;6.880;2023-05-31T09:23:16;3.33;;;2.55;;
12059;SDS011;6091;51.432;6.880;2023-05-31T09:25:48;4.72;;;2.80;;
12059;SDS011;6091;51.432;6.880;2023-05-31T09:28:20;2.65;;;2.28;;
12059;SDS011;6091;51.432;6.880;2023-05-31T09:31:01;2.55;;;2.33;;
12059;SDS011;6091;51.432;6.880;2023-05-31T09:33:43;2.75;;;2.50;;
12059;SDS011;6091;51.432;6.880;2023-05-31T09:36:14;2.65;;;2.25;;
12059;SDS011;6091;51.432;6.880;2023-05-31T09:38:58;3.58;;;2.42;;
12059;SDS011;6091;51.432;6.880;2023-05-31T09:41:32;2.60;;;2.30;;
12059;SDS011;6091;51.432;6.880;2023-05-31T09:43:59;3.83;;;2.65;;
12059;SDS011;6091;51.432;6.880;2023-05-31T09:46:27;2.97;;;2.38;;
12059;SDS011;6091;51.432;6.880;2023-05-31T09:49:04;3.35;;;2.45;;
12059;SDS011;6091;51.432;6.880;2023-05-31T09:51:33;2.38;;;2.15;;
12059;SDS011;6091;51.432;6.880;2023-05-31T09:54:02;2.42;;;2.05;;
12059;SDS011;6091;51.432;6.880;2023-05-31T09:56:39;3.03;;;2.38;;
12059;SDS011;6091;51.432;6.880;2023-05-31T09:59:08;2.38;;;1.90;;
12059;SDS011;6091;51.432;6.880;2023-05-31T10:01:36;3.60;;;2.53;;
12059;SDS011;6091;51.432;6.880;2023-05-31T10:04:04;3.72;;;2.33;;
12059;SDS011;6091;51.432;6.880;2023-05-31T10:06:33;3.60;;;2.20;;
12059;SDS011;6091;51.432;6.880;2023-05-31T10:09:04;4.47;;;2.20;;
12059;SDS011;6091;51.432;6.880;2023-05-31T10:11:34;2.70;;;2.13;;
12059;SDS011;6091;51.432;6.880;2023-05-31T10:14:25;2.22;;;1.80;;
12059;SDS011;6091;51.432;6.880;2023-05-31T10:16:55;2.55;;;2.05;;
12059;SDS011;6091;51.432;6.880;2023-05-31T10:19:23;4.47;;;2.35;;
12059;SDS011;6091;51.432;6.880;2023-05-31T10:22:01;2.25;;;1.88;;
12059;SDS011;6091;51.432;6.880;2023-05-31T10:24:44;2.70;;;2.35;;
12059;SDS011;6091;51.432;6.880;2023-05-31T10:27:38;2.20;;;1.90;;
12059;SDS011;6091;51.432;6.880;2023-05-31T10:30:10;2.40;;;2.20;;
12059;SDS011;6091;51.432;6.880;2023-05-31T10:32:42;2.42;;;2.22;;
12059;SDS011;6091;51.432;6.880;2023-05-31T10:35:18;2.53;;;2.33;;
12059;SDS011;6091;51.432;6.880;2023-05-31T10:37:45;3.10;;;2.28;;
12059;SDS011;6091;51.432;6.880;2023-05-31T10:46:10;3.67;;;2.13;;
12059;SDS011;6091;51.432;6.880;2023-05-31T10:48:55;3.58;;;2.28;;
12059;SDS011;6091;51.432;6.880;2023-05-31T10:51:37;2.17;;;1.98;;
12059;SDS011;6091;51.432;6.880;2023-05-31T10:54:06;2.63;;;2.05;;
12059;SDS011;6091;51.432;6.880;2023-05-31T10:56:37;3.65;;;1.98;;
12059;SDS011;6091;51.432;6.880;2023-05-31T10:59:08;2.10;;;1.85;;
12059;SDS011;6091;51.432;6.880;2023-05-31T11:01:37;2.15;;;1.95;;
12059;SDS011;6091;51.432;6.880;2023-05-31T11:04:04;2.10;;;1.90;;
12059;SDS011;6091;51.432;6.880;2023-05-31T11:06:54;2.10;;;1.90;;
12059;SDS011;6091;51.432;6.880;2023-05-31T11:09:54;2.00;;;1.80;;
12059;SDS011;6091;51.432;6.880;2023-05-31T11:12:31;2.00;;;1.80;;
12059;SDS011;6091;51.432;6.880;2023-05-31T11:15:05;2.13;;;1.75;;
12059;SDS011;6091;51.432;6.880;2023-05-31T11:17:40;3.00;;;1.92;;
12059;SDS011;6091;51.432;6.880;2023-05-31T11:20:21;2.42;;;2.05;;
12059;SDS011;6091;51.432;6.880;2023-05-31T11:26:10;2.47;;;1.67;;
12059;SDS011;6091;51.432;6.880;2023-05-31T11:34:21;2.05;;;1.67;;
12059;SDS011;6091;51.432;6.880;2023-05-31T11:36:50;2.88;;;1.80;;
12059;SDS011;6091;51.432;6.880;2023-05-31T11:39:19;1.70;;;1.60;;
12059;SDS011;6091;51.432;6.880;2023-05-31T11:41:46;2.42;;;2.08;;
12059;SDS011;6091;51.432;6.880;2023-05-31T11:44:14;2.60;;;1.75;;
12059;SDS011;6091;51.432;6.880;2023-05-31T11:46:52;2.40;;;1.90;;
12059;SDS011;6091;51.432;6.880;2023-05-31T11:49:32;2.45;;;1.75;;
12059;SDS011;6091;51.432;6.880;2023-05-31T11:52:00;3.33;;;1.80;;
12059;SDS011;6091;51.432;6.880;2023-05-31T11:54:30;2.50;;;1.90;;
12059;SDS011;6091;51.432;6.880;2023-05-31T11:56:59;2.13;;;1.80;;
12059;SDS011;6091;51.432;6.880;2023-05-31T11:59:30;2.53;;;1.88;;
12059;SDS011;6091;51.432;6.880;2023-05-31T12:02:01;2.65;;;1.98;;
12059;SDS011;6091;51.432;6.880;2023-05-31T12:07:05;2.90;;;2.10;;
12059;SDS011;6091;51.432;6.880;2023-05-31T12:09:36;3.35;;;2.10;;
12059;SDS011;6091;51.432;6.880;2023-05-31T12:12:04;2.47;;;1.88;;
12059;SDS011;6091;51.432;6.880;2023-05-31T12:14:31;3.05;;;1.90;;
12059;SDS011;6091;51.432;6.880;2023-05-31T12:17:00;2.22;;;1.92;;
12059;SDS011;6091;51.432;6.880;2023-05-31T12:19:30;2.10;;;1.90;;
12059;SDS011;6091;51.432;6.880;2023-05-31T12:21:58;4.33;;;2.50;;
12059;SDS011;6091;51.432;6.880;2023-05-31T12:24:28;3.45;;;2.15;;
12059;SDS011;6091;51.432;6.880;2023-05-31T12:26:55;3.28;;;1.83;;
12059;SDS011;6091;51.432;6.880;2023-05-31T12:29:30;2.08;;;1.88;;
12059;SDS011;6091;51.432;6.880;2023-05-31T12:32:01;3.33;;;2.33;;
12059;SDS011;6091;51.432;6.880;2023-05-31T12:34:35;2.50;;;1.52;;
12059;SDS011;6091;51.432;6.880;2023-05-31T12:37:04;2.08;;;1.75;;
12059;SDS011;6091;51.432;6.880;2023-05-31T12:39:33;2.15;;;1.90;;
12059;SDS011;6091;51.432;6.880;2023-05-31T12:42:01;2.22;;;2.00;;
12059;SDS011;6091;51.432;6.880;2023-05-31T12:44:30;3.42;;;1.92;;
12059;SDS011;6091;51.432;6.880;2023-05-31T12:47:07;2.53;;;1.73;;
12059;SDS011;6091;51.432;6.880;2023-05-31T12:49:35;3.22;;;1.90;;
12059;SDS011;6091;51.432;6.880;2023-05-31T12:52:04;2.55;;;1.70;;
12059;SDS011;6091;51.432;6.880;2023-05-31T12:54:36;2.40;;;1.70;;
12059;SDS011;6091;51.432;6.880;2023-05-31T12:57:06;1.90;;;1.75;;
12059;SDS011;6091;51.432;6.880;2023-05-31T12:59:35;2.20;;;1.90;;
12059;SDS011;6091;51.432;6.880;2023-05-31T13:02:04;3.08;;;2.05;;
12059;SDS011;6091;51.432;6.880;2023-05-31T13:04:32;2.60;;;1.70;;
12059;SDS011;6091;51.432;6.880;2023-05-31T13:06:59;4.50;;;1.88;;
12059;SDS011;6091;51.432;6.880;2023-05-31T13:09:28;2.22;;;1.85;;
12059;SDS011;6091;51.432;6.880;2023-05-31T13:11:55;2.03;;;1.65;;
12059;SDS011;6091;51.432;6.880;2023-05-31T13:14:22;2.25;;;2.05;;
12059;SDS011;6091;51.432;6.880;2023-05-31T13:16:52;2.13;;;1.60;;
12059;SDS011;6091;51.432;6.880;2023-05-31T13:19:20;1.75;;;1.60;;
12059;SDS011;6091;51.432;6.880;2023-05-31T13:21:47;2.75;;;1.75;;
12059;SDS011;6091;51.432;6.880;2023-05-31T13:24:14;1.63;;;1.50;;
12059;SDS011;6091;51.432;6.880;2023-05-31T13:26:41;1.70;;;1.60;;
12059;SDS011;6091;51.432;6.880;2023-05-31T13:29:08;1.65;;;1.55;;
12059;SDS011;6091;51.432;6.880;2023-05-31T13:31:35;1.95;;;1.73;;
12059;SDS011;6091;51.432;6.880;2023-05-31T13:34:02;2.28;;;1.73;;
12059;SDS011;6091;51.432;6.880;2023-05-31T13:36:32;1.85;;;1.65;;
12059;SDS011;6091;51.432;6.880;2023-05-31T13:38:59;1.42;;;1.33;;
12059;SDS011;6091;51.432;6.880;2023-05-31T13:41:27;2.33;;;1.90;;
12059;SDS011;6091;51.432;6.880;2023-05-31T13:43:55;5.50;;;2.10;;
12059;SDS011;6091;51.432;6.880;2023-05-31T13:46:21;4.57;;;1.70;;
12059;SDS011;6091;51.432;6.880;2023-05-31T13:48:49;6.20;;;2.20;;
12059;SDS011;6091;51.432;6.880;2023-05-31T13:51:18;5.05;;;1.92;;
12059;SDS011;6091;51.432;6.880;2023-05-31T13:53:45;2.78;;;1.80;;
12059;SDS011;6091;51.432;6.880;2023-05-31T13:56:12;3.78;;;1.92;;
12059;SDS011;6091;51.432;6.880;2023-05-31T13:58:39;5.20;;;2.13;;
12059;SDS011;6091;51.432;6.880;2023-05-31T14:01:06;4.97;;;2.08;;
12059;SDS011;6091;51.432;6.880;2023-05-31T14:03:34;4.20;;;2.03;;
12059;SDS011;6091;51.432;6.880;2023-05-31T14:06:05;4.43;;;2.17;;
12059;SDS011;6091;51.432;6.880;2023-05-31T14:08:33;4.78;;;2.28;;
12059;SDS011;6091;51.432;6.880;2023-05-31T14:11:01;4.15;;;2.17;;
12059;SDS011;6091;51.432;6.880;2023-05-31T14:13:28;5.75;;;2.13;;
12059;SDS011;6091;51.432;6.880;2023-05-31T14:15:56;3.63;;;1.70;;
12059;SDS011;6091;51.432;6.880;2023-05-31T14:18:23;3.50;;;1.90;;
12059;SDS011;6091;51.432;6.880;2023-05-31T14:20:50;5.30;;;1.92;;
12059;SDS011;6091;51.432;6.880;2023-05-31T14:23:20;3.80;;;1.92;;
12059;SDS011;6091;51.432;6.880;2023-05-31T14:25:47;5.53;;;1.83;;
12059;SDS011;6091;51.432;6.880;2023-05-31T14:28:14;5.60;;;2.08;;
12059;SDS011;6091;51.432;6.880;2023-05-31T14:30:41;4.88;;;2.25;;
12059;SDS011;6091;51.432;6.880;2023-05-31T14:33:08;3.90;;;2.10;;
12059;SDS011;6091;51.432;6.880;2023-05-31T14:35:36;5.25;;;2.15;;
12059;SDS011;6091;51.432;6.880;2023-05-31T14:38:03;6.47;;;2.17;;
12059;SDS011;6091;51.432;6.880;2023-05-31T14:40:50;7.00;;;2.20;;
12059;SDS011;6091;51.432;6.880;2023-05-31T14:43:17;4.25;;;1.90;;
12059;SDS011;6091;51.432;6.880;2023-05-31T14:45:45;3.65;;;1.88;;
12059;SDS011;6091;51.432;6.880;2023-05-31T14:48:13;2.85;;;1.88;;
12059;SDS011;6091;51.432;6.880;2023-05-31T14:50:40;5.78;;;1.95;;
12059;SDS011;6091;51.432;6.880;2023-05-31T14:53:07;5.43;;;2.10;;
12059;SDS011;6091;51.432;6.880;2023-05-31T14:55:38;4.47;;;1.77;;
12059;SDS011;6091;51.432;6.880;2023-05-31T14:58:04;4.85;;;2.00;;
12059;SDS011;6091;51.432;6.880;2023-05-31T15:00:32;3.55;;;2.00;;
12059;SDS011;6091;51.432;6.880;2023-05-31T15:02:59;2.60;;;1.90;;
12059;SDS011;6091;51.432;6.880;2023-05-31T15:05:26;3.33;;;1.80;;
12059;SDS011;6091;51.432;6.880;2023-05-31T15:07:53;2.47;;;1.55;;
12059;SDS011;6091;51.432;6.880;2023-05-31T15:10:20;1.85;;;1.70;;
12059;SDS011;6091;51.432;6.880;2023-05-31T15:12:47;2.78;;;1.80;;
12059;SDS011;6091;51.432;6.880;2023-05-31T15:15:14;2.28;;;1.77;;
12059;SDS011;6091;51.432;6.880;2023-05-31T15:17:42;1.65;;;1.50;;
12059;SDS011;6091;51.432;6.880;2023-05-31T15:20:09;1.73;;;1.55;;
12059;SDS011;6091;51.432;6.880;2023-05-31T15:22:36;4.85;;;1.67;;
12059;SDS011;6091;51.432;6.880;2023-05-31T15:25:05;1.80;;;1.45;;
12059;SDS011;6091;51.432;6.880;2023-05-31T15:27:32;2.47;;;1.88;;
12059;SDS011;6091;51.432;6.880;2023-05-31T15:30:01;2.80;;;1.67;;
12059;SDS011;6091;51.432;6.880;2023-05-31T15:32:30;2.97;;;2.05;;